sensor_id;sensor_type;location;lat;lon;timestamp;P1;durP1;ratioP1;P2;durP2;ratioP2
62463;SDS011;48512;48.552;9.380;2023-08-06T00:00:29;8.85;;;5.22;;
62463;SDS011;48512;48.552;9.380;2023-08-06T00:02:55;8.50;;;4.97;;
62463;SDS011;48512;48.552;9.380;2023-08-06T00:05:21;8.90;;;5.22;;
62463;SDS011;48512;48.552;9.380;2023-08-06T00:07:47;8.93;;;5.05;;
62463;SDS011;48512;48.552;9.380;2023-08-06T00:10:14;8.15;;;5.20;;
62463;SDS011;48512;48.552;9.380;2023-08-06T00:12:40;8.38;;;5.13;;
62463;SDS011;48512;48.552;9.380;2023-08-06T00:15:06;7.10;;;4.50;;
62463;SDS011;48512;48.552;9.380;2023-08-06T00:17:33;10.43;;;5.00;;
62463;SDS011;48512;48.552;9.380;2023-08-06T00:20:00;8.18;;;5.28;;
62463;SDS011;48512;48.552;9.380;2023-08-06T00:22:31;7.95;;;5.13;;
62463;SDS011;48512;48.552;9.380;2023-08-06T00:24:58;6.82;;;4.50;;
62463;SDS011;48512;48.552;9.380;2023-08-06T00:27:24;8.73;;;5.20;;
62463;SDS011;48512;48.552;9.380;2023-08-06T00:29:51;7.53;;;4.88;;
62463;SDS011;48512;48.552;9.380;2023-08-06T00:32:18;7.50;;;4.80;;
62463;SDS011;48512;48.552;9.380;2023-08-06T00:34:45;8.18;;;5.15;;
62463;SDS011;48512;48.552;9.380;2023-08-06T00:37:11;11.98;;;5.03;;
62463;SDS011;48512;48.552;9.380;2023-08-06T00:39:38;8.30;;;4.90;;
62463;SDS011;48512;48.552;9.380;2023-08-06T00:42:05;9.60;;;5.28;;
62463;SDS011;48512;48.552;9.380;2023-08-06T00:44:31;9.55;;;5.15;;
62463;SDS011;48512;48.552;9.380;2023-08-06T00:46:57;8.18;;;5.25;;
62463;SDS011;48512;48.552;9.380;2023-08-06T00:49:23;9.23;;;4.95;;
62463;SDS011;48512;48.552;9.380;2023-08-06T00:51:50;9.80;;;5.22;;
62463;SDS011;48512;48.552;9.380;2023-08-06T00:54:16;10.63;;;5.00;;
62463;SDS011;48512;48.552;9.380;2023-08-06T00:56:42;10.25;;;5.35;;
62463;SDS011;48512;48.552;9.380;2023-08-06T00:59:09;11.40;;;5.05;;
62463;SDS011;48512;48.552;9.380;2023-08-06T01:01:37;9.95;;;5.15;;
62463;SDS011;48512;48.552;9.380;2023-08-06T01:04:03;9.80;;;5.20;;
62463;SDS011;48512;48.552;9.380;2023-08-06T01:12:14;8.23;;;4.85;;
62463;SDS011;48512;48.552;9.380;2023-08-06T01:15:07;7.53;;;5.10;;
62463;SDS011;48512;48.552;9.380;2023-08-06T01:17:40;7.20;;;4.82;;
62463;SDS011;48512;48.552;9.380;2023-08-06T01:20:06;7.93;;;5.10;;
62463;SDS011;48512;48.552;9.380;2023-08-06T01:22:33;8.27;;;5.10;;
62463;SDS011;48512;48.552;9.380;2023-08-06T01:24:59;7.93;;;5.15;;
62463;SDS011;48512;48.552;9.380;2023-08-06T01:27:28;11.65;;;5.78;;
62463;SDS011;48512;48.552;9.380;2023-08-06T01:32:38;9.02;;;5.72;;
62463;SDS011;48512;48.552;9.380;2023-08-06T01:35:08;8.60;;;5.00;;
62463;SDS011;48512;48.552;9.380;2023-08-06T01:37:37;8.67;;;5.17;;
62463;SDS011;48512;48.552;9.380;2023-08-06T01:40:10;9.93;;;4.43;;
62463;SDS011;48512;48.552;9.380;2023-08-06T01:42:37;8.52;;;4.70;;
62463;SDS011;48512;48.552;9.380;2023-08-06T01:45:08;7.55;;;3.78;;
62463;SDS011;48512;48.552;9.380;2023-08-06T01:47:34;9.18;;;3.78;;
62463;SDS011;48512;48.552;9.380;2023-08-06T01:50:01;7.43;;;4.03;;
62463;SDS011;48512;48.552;9.380;2023-08-06T01:52:27;9.40;;;4.00;;
62463;SDS011;48512;48.552;9.380;2023-08-06T01:54:54;8.18;;;3.75;;
62463;SDS011;48512;48.552;9.380;2023-08-06T01:57:20;9.57;;;4.10;;
62463;SDS011;48512;48.552;9.380;2023-08-06T01:59:46;6.18;;;3.75;;
62463;SDS011;48512;48.552;9.380;2023-08-06T02:02:13;6.18;;;3.60;;
62463;SDS011;48512;48.552;9.380;2023-08-06T02:04:39;8.30;;;4.22;;
62463;SDS011;48512;48.552;9.380;2023-08-06T02:07:05;8.13;;;3.50;;
62463;SDS011;48512;48.552;9.380;2023-08-06T02:09:31;8.68;;;3.55;;
62463;SDS011;48512;48.552;9.380;2023-08-06T02:11:57;8.73;;;3.65;;
62463;SDS011;48512;48.552;9.380;2023-08-06T02:14:28;7.72;;;3.67;;
62463;SDS011;48512;48.552;9.380;2023-08-06T02:16:54;5.72;;;3.40;;
62463;SDS011;48512;48.552;9.380;2023-08-06T02:19:20;6.75;;;3.40;;
62463;SDS011;48512;48.552;9.380;2023-08-06T02:21:46;8.23;;;3.30;;
62463;SDS011;48512;48.552;9.380;2023-08-06T02:24:12;7.53;;;3.33;;
62463;SDS011;48512;48.552;9.380;2023-08-06T02:26:38;7.00;;;3.40;;
62463;SDS011;48512;48.552;9.380;2023-08-06T02:29:04;8.48;;;3.17;;
62463;SDS011;48512;48.552;9.380;2023-08-06T02:31:30;5.68;;;2.75;;
62463;SDS011;48512;48.552;9.380;2023-08-06T02:33:57;6.90;;;2.80;;
62463;SDS011;48512;48.552;9.380;2023-08-06T02:36:24;7.78;;;2.45;;
62463;SDS011;48512;48.552;9.380;2023-08-06T02:38:50;5.25;;;2.65;;
62463;SDS011;48512;48.552;9.380;2023-08-06T02:41:16;9.43;;;2.40;;
62463;SDS011;48512;48.552;9.380;2023-08-06T02:43:42;5.88;;;2.40;;
62463;SDS011;48512;48.552;9.380;2023-08-06T02:46:08;4.78;;;2.50;;
62463;SDS011;48512;48.552;9.380;2023-08-06T02:48:34;8.07;;;2.90;;
62463;SDS011;48512;48.552;9.380;2023-08-06T02:51:01;4.68;;;2.67;;
62463;SDS011;48512;48.552;9.380;2023-08-06T02:53:29;6.72;;;2.60;;
62463;SDS011;48512;48.552;9.380;2023-08-06T02:55:57;4.65;;;2.40;;
62463;SDS011;48512;48.552;9.380;2023-08-06T02:58:31;6.78;;;2.22;;
62463;SDS011;48512;48.552;9.380;2023-08-06T03:01:11;6.15;;;2.30;;
62463;SDS011;48512;48.552;9.380;2023-08-06T03:03:50;6.43;;;2.10;;
62463;SDS011;48512;48.552;9.380;2023-08-06T03:06:23;4.63;;;1.90;;
62463;SDS011;48512;48.552;9.380;2023-08-06T03:08:52;4.57;;;2.10;;
62463;SDS011;48512;48.552;9.380;2023-08-06T03:11:18;5.95;;;2.10;;
62463;SDS011;48512;48.552;9.380;2023-08-06T03:13:45;7.45;;;2.65;;
62463;SDS011;48512;48.552;9.380;2023-08-06T03:16:12;5.35;;;2.03;;
62463;SDS011;48512;48.552;9.380;2023-08-06T03:18:38;5.53;;;2.50;;
62463;SDS011;48512;48.552;9.380;2023-08-06T03:21:07;4.90;;;1.92;;
62463;SDS011;48512;48.552;9.380;2023-08-06T03:23:33;5.68;;;2.47;;
62463;SDS011;48512;48.552;9.380;2023-08-06T03:26:03;4.90;;;2.42;;
62463;SDS011;48512;48.552;9.380;2023-08-06T03:28:31;4.15;;;2.00;;
62463;SDS011;48512;48.552;9.380;2023-08-06T03:31:00;6.45;;;2.20;;
62463;SDS011;48512;48.552;9.380;2023-08-06T03:33:40;9.05;;;2.40;;
62463;SDS011;48512;48.552;9.380;2023-08-06T03:36:12;4.53;;;2.25;;
62463;SDS011;48512;48.552;9.380;2023-08-06T03:38:39;5.93;;;2.25;;
62463;SDS011;48512;48.552;9.380;2023-08-06T03:41:07;7.15;;;2.40;;
62463;SDS011;48512;48.552;9.380;2023-08-06T03:43:33;7.18;;;2.28;;
62463;SDS011;48512;48.552;9.380;2023-08-06T03:46:00;8.00;;;2.25;;
62463;SDS011;48512;48.552;9.380;2023-08-06T03:48:26;7.95;;;2.22;;
62463;SDS011;48512;48.552;9.380;2023-08-06T03:50:52;4.47;;;2.20;;
62463;SDS011;48512;48.552;9.380;2023-08-06T03:53:19;6.25;;;2.50;;
62463;SDS011;48512;48.552;9.380;2023-08-06T03:55:45;7.20;;;1.90;;
62463;SDS011;48512;48.552;9.380;2023-08-06T03:58:11;6.03;;;2.65;;
62463;SDS011;48512;48.552;9.380;2023-08-06T04:00:37;4.68;;;2.25;;
62463;SDS011;48512;48.552;9.380;2023-08-06T04:03:03;8.80;;;2.30;;
62463;SDS011;48512;48.552;9.380;2023-08-06T04:05:31;7.53;;;2.55;;
62463;SDS011;48512;48.552;9.380;2023-08-06T04:07:58;8.60;;;2.33;;
62463;SDS011;48512;48.552;9.380;2023-08-06T04:10:26;5.10;;;2.20;;
62463;SDS011;48512;48.552;9.380;2023-08-06T04:12:52;4.70;;;2.25;;
62463;SDS011;48512;48.552;9.380;2023-08-06T04:15:18;9.23;;;2.13;;
62463;SDS011;48512;48.552;9.380;2023-08-06T04:17:44;5.28;;;1.88;;
62463;SDS011;48512;48.552;9.380;2023-08-06T04:20:10;5.75;;;2.10;;
62463;SDS011;48512;48.552;9.380;2023-08-06T04:22:36;16.45;;;2.15;;
62463;SDS011;48512;48.552;9.380;2023-08-06T04:25:04;3.83;;;1.70;;
62463;SDS011;48512;48.552;9.380;2023-08-06T04:27:30;5.40;;;1.70;;
62463;SDS011;48512;48.552;9.380;2023-08-06T04:29:56;6.28;;;1.95;;
62463;SDS011;48512;48.552;9.380;2023-08-06T04:32:22;3.22;;;1.30;;
62463;SDS011;48512;48.552;9.380;2023-08-06T04:37:18;4.50;;;1.40;;
62463;SDS011;48512;48.552;9.380;2023-08-06T04:39:44;6.65;;;1.50;;
62463;SDS011;48512;48.552;9.380;2023-08-06T04:42:10;2.55;;;1.25;;
62463;SDS011;48512;48.552;9.380;2023-08-06T04:44:37;3.85;;;1.33;;
62463;SDS011;48512;48.552;9.380;2023-08-06T04:47:04;3.42;;;1.00;;
62463;SDS011;48512;48.552;9.380;2023-08-06T04:49:30;6.57;;;1.33;;
62463;SDS011;48512;48.552;9.380;2023-08-06T04:51:56;2.60;;;1.25;;
62463;SDS011;48512;48.552;9.380;2023-08-06T04:54:22;6.93;;;1.35;;
62463;SDS011;48512;48.552;9.380;2023-08-06T04:56:48;4.38;;;1.27;;
62463;SDS011;48512;48.552;9.380;2023-08-06T04:59:14;3.45;;;1.05;;
62463;SDS011;48512;48.552;9.380;2023-08-06T05:01:40;2.22;;;1.30;;
62463;SDS011;48512;48.552;9.380;2023-08-06T05:04:06;7.65;;;1.25;;
62463;SDS011;48512;48.552;9.380;2023-08-06T05:06:32;3.58;;;1.20;;
62463;SDS011;48512;48.552;9.380;2023-08-06T05:08:58;4.72;;;1.30;;
62463;SDS011;48512;48.552;9.380;2023-08-06T05:11:24;2.65;;;1.00;;
62463;SDS011;48512;48.552;9.380;2023-08-06T05:13:50;3.13;;;1.17;;
62463;SDS011;48512;48.552;9.380;2023-08-06T05:16:16;4.80;;;1.38;;
62463;SDS011;48512;48.552;9.380;2023-08-06T05:18:43;2.45;;;1.08;;
62463;SDS011;48512;48.552;9.380;2023-08-06T05:21:09;5.20;;;1.50;;
62463;SDS011;48512;48.552;9.380;2023-08-06T05:23:35;3.20;;;1.15;;
62463;SDS011;48512;48.552;9.380;2023-08-06T05:26:01;4.18;;;1.75;;
62463;SDS011;48512;48.552;9.380;2023-08-06T05:28:27;2.80;;;1.20;;
62463;SDS011;48512;48.552;9.380;2023-08-06T05:30:53;2.60;;;1.17;;
62463;SDS011;48512;48.552;9.380;2023-08-06T05:33:19;3.22;;;1.33;;
62463;SDS011;48512;48.552;9.380;2023-08-06T05:35:45;3.22;;;0.93;;
62463;SDS011;48512;48.552;9.380;2023-08-06T05:38:11;3.28;;;0.88;;
62463;SDS011;48512;48.552;9.380;2023-08-06T05:40:37;4.68;;;1.25;;
62463;SDS011;48512;48.552;9.380;2023-08-06T05:43:03;3.55;;;1.10;;
62463;SDS011;48512;48.552;9.380;2023-08-06T05:45:32;2.95;;;1.02;;
62463;SDS011;48512;48.552;9.380;2023-08-06T05:47:59;2.28;;;1.08;;
62463;SDS011;48512;48.552;9.380;2023-08-06T05:50:25;4.18;;;1.20;;
62463;SDS011;48512;48.552;9.380;2023-08-06T05:52:51;4.20;;;0.80;;
62463;SDS011;48512;48.552;9.380;2023-08-06T05:55:18;1.92;;;0.93;;
62463;SDS011;48512;48.552;9.380;2023-08-06T05:57:45;2.08;;;1.02;;
62463;SDS011;48512;48.552;9.380;2023-08-06T06:00:11;2.47;;;1.00;;
62463;SDS011;48512;48.552;9.380;2023-08-06T06:02:40;2.10;;;1.00;;
62463;SDS011;48512;48.552;9.380;2023-08-06T06:05:06;4.47;;;1.15;;
62463;SDS011;48512;48.552;9.380;2023-08-06T06:07:33;2.58;;;1.10;;
62463;SDS011;48512;48.552;9.380;2023-08-06T06:09:59;2.63;;;0.80;;
62463;SDS011;48512;48.552;9.380;2023-08-06T06:12:25;3.47;;;0.95;;
62463;SDS011;48512;48.552;9.380;2023-08-06T06:14:52;4.15;;;0.80;;
62463;SDS011;48512;48.552;9.380;2023-08-06T06:17:18;4.22;;;0.80;;
62463;SDS011;48512;48.552;9.380;2023-08-06T06:19:44;2.80;;;0.80;;
62463;SDS011;48512;48.552;9.380;2023-08-06T06:22:10;3.33;;;0.70;;
62463;SDS011;48512;48.552;9.380;2023-08-06T06:24:36;4.22;;;0.80;;
62463;SDS011;48512;48.552;9.380;2023-08-06T06:27:02;3.35;;;1.45;;
62463;SDS011;48512;48.552;9.380;2023-08-06T06:29:28;3.25;;;0.70;;
62463;SDS011;48512;48.552;9.380;2023-08-06T06:31:54;5.13;;;0.65;;
62463;SDS011;48512;48.552;9.380;2023-08-06T06:34:20;7.68;;;0.90;;
62463;SDS011;48512;48.552;9.380;2023-08-06T06:36:47;1.52;;;0.70;;
62463;SDS011;48512;48.552;9.380;2023-08-06T06:39:15;2.38;;;0.70;;
62463;SDS011;48512;48.552;9.380;2023-08-06T06:41:41;1.23;;;0.55;;
62463;SDS011;48512;48.552;9.380;2023-08-06T06:44:17;4.55;;;0.60;;
62463;SDS011;48512;48.552;9.380;2023-08-06T06:46:45;2.03;;;0.70;;
62463;SDS011;48512;48.552;9.380;2023-08-06T06:49:11;0.90;;;0.50;;
62463;SDS011;48512;48.552;9.380;2023-08-06T06:51:37;2.88;;;0.80;;
62463;SDS011;48512;48.552;9.380;2023-08-06T06:54:03;6.63;;;0.90;;
62463;SDS011;48512;48.552;9.380;2023-08-06T06:56:30;2.33;;;0.60;;
62463;SDS011;48512;48.552;9.380;2023-08-06T06:58:56;5.07;;;0.82;;
62463;SDS011;48512;48.552;9.380;2023-08-06T07:01:22;2.22;;;0.77;;
62463;SDS011;48512;48.552;9.380;2023-08-06T07:03:48;3.83;;;1.63;;
62463;SDS011;48512;48.552;9.380;2023-08-06T07:06:14;3.55;;;1.25;;
62463;SDS011;48512;48.552;9.380;2023-08-06T07:08:41;4.93;;;1.80;;
62463;SDS011;48512;48.552;9.380;2023-08-06T07:11:07;4.38;;;1.23;;
62463;SDS011;48512;48.552;9.380;2023-08-06T07:13:33;7.78;;;2.97;;
62463;SDS011;48512;48.552;9.380;2023-08-06T07:16:00;1.45;;;0.73;;
62463;SDS011;48512;48.552;9.380;2023-08-06T07:18:26;2.35;;;0.52;;
62463;SDS011;48512;48.552;9.380;2023-08-06T07:20:53;2.95;;;0.57;;
62463;SDS011;48512;48.552;9.380;2023-08-06T07:23:20;1.38;;;0.30;;
62463;SDS011;48512;48.552;9.380;2023-08-06T07:25:47;4.05;;;0.60;;
62463;SDS011;48512;48.552;9.380;2023-08-06T07:28:13;2.33;;;0.50;;
62463;SDS011;48512;48.552;9.380;2023-08-06T07:30:40;2.40;;;0.32;;
62463;SDS011;48512;48.552;9.380;2023-08-06T07:33:07;1.42;;;0.40;;
62463;SDS011;48512;48.552;9.380;2023-08-06T07:35:33;1.33;;;0.50;;
62463;SDS011;48512;48.552;9.380;2023-08-06T07:38:00;0.80;;;0.30;;
62463;SDS011;48512;48.552;9.380;2023-08-06T07:40:26;3.47;;;0.52;;
62463;SDS011;48512;48.552;9.380;2023-08-06T07:42:52;1.98;;;0.47;;
62463;SDS011;48512;48.552;9.380;2023-08-06T07:45:18;1.02;;;0.40;;
62463;SDS011;48512;48.552;9.380;2023-08-06T07:47:44;4.10;;;1.05;;
62463;SDS011;48512;48.552;9.380;2023-08-06T07:50:10;0.55;;;0.32;;
62463;SDS011;48512;48.552;9.380;2023-08-06T07:52:36;1.50;;;0.40;;
62463;SDS011;48512;48.552;9.380;2023-08-06T07:55:03;2.75;;;0.75;;
62463;SDS011;48512;48.552;9.380;2023-08-06T07:57:31;0.55;;;0.30;;
62463;SDS011;48512;48.552;9.380;2023-08-06T07:59:57;3.63;;;0.75;;
62463;SDS011;48512;48.552;9.380;2023-08-06T08:02:24;4.25;;;1.40;;
62463;SDS011;48512;48.552;9.380;2023-08-06T08:04:50;3.65;;;0.70;;
62463;SDS011;48512;48.552;9.380;2023-08-06T08:07:16;2.25;;;0.30;;
62463;SDS011;48512;48.552;9.380;2023-08-06T08:09:42;1.77;;;0.30;;
62463;SDS011;48512;48.552;9.380;2023-08-06T08:12:08;4.10;;;0.60;;
62463;SDS011;48512;48.552;9.380;2023-08-06T08:14:34;1.33;;;0.30;;
62463;SDS011;48512;48.552;9.380;2023-08-06T08:17:03;1.53;;;0.40;;
62463;SDS011;48512;48.552;9.380;2023-08-06T08:19:34;1.58;;;0.20;;
62463;SDS011;48512;48.552;9.380;2023-08-06T08:22:00;1.05;;;0.25;;
62463;SDS011;48512;48.552;9.380;2023-08-06T08:26:56;1.52;;;0.20;;
62463;SDS011;48512;48.552;9.380;2023-08-06T08:29:22;2.00;;;0.20;;
62463;SDS011;48512;48.552;9.380;2023-08-06T08:31:48;2.05;;;0.20;;
62463;SDS011;48512;48.552;9.380;2023-08-06T08:34:16;0.50;;;0.30;;
62463;SDS011;48512;48.552;9.380;2023-08-06T08:36:42;3.58;;;0.60;;
62463;SDS011;48512;48.552;9.380;2023-08-06T08:39:09;3.33;;;0.75;;
62463;SDS011;48512;48.552;9.380;2023-08-06T08:41:36;0.85;;;0.30;;
62463;SDS011;48512;48.552;9.380;2023-08-06T08:44:03;1.00;;;0.30;;
62463;SDS011;48512;48.552;9.380;2023-08-06T08:46:33;2.50;;;0.20;;
62463;SDS011;48512;48.552;9.380;2023-08-06T08:49:01;0.65;;;0.30;;
62463;SDS011;48512;48.552;9.380;2023-08-06T08:51:28;0.25;;;0.25;;
62463;SDS011;48512;48.552;9.380;2023-08-06T08:53:55;0.57;;;0.20;;
62463;SDS011;48512;48.552;9.380;2023-08-06T08:56:23;0.82;;;0.13;;
62463;SDS011;48512;48.552;9.380;2023-08-06T08:58:50;1.00;;;0.70;;
62463;SDS011;48512;48.552;9.380;2023-08-06T09:01:18;2.15;;;0.10;;
62463;SDS011;48512;48.552;9.380;2023-08-06T09:03:46;0.77;;;0.30;;
62463;SDS011;48512;48.552;9.380;2023-08-06T09:06:12;0.73;;;0.20;;
62463;SDS011;48512;48.552;9.380;2023-08-06T09:08:45;1.08;;;0.40;;
62463;SDS011;48512;48.552;9.380;2023-08-06T09:11:32;1.10;;;0.20;;
62463;SDS011;48512;48.552;9.380;2023-08-06T09:14:11;0.43;;;0.30;;
62463;SDS011;48512;48.552;9.380;2023-08-06T09:16:37;0.20;;;0.20;;
62463;SDS011;48512;48.552;9.380;2023-08-06T09:19:10;7.47;;;3.30;;
62463;SDS011;48512;48.552;9.380;2023-08-06T09:21:38;1.80;;;0.57;;
62463;SDS011;48512;48.552;9.380;2023-08-06T09:24:09;2.70;;;0.65;;
62463;SDS011;48512;48.552;9.380;2023-08-06T09:26:36;2.67;;;0.90;;
62463;SDS011;48512;48.552;9.380;2023-08-06T09:29:06;0.82;;;0.30;;
62463;SDS011;48512;48.552;9.380;2023-08-06T09:31:39;0.40;;;0.20;;
62463;SDS011;48512;48.552;9.380;2023-08-06T09:34:10;1.38;;;0.20;;
62463;SDS011;48512;48.552;9.380;2023-08-06T09:36:48;1.10;;;0.40;;
62463;SDS011;48512;48.552;9.380;2023-08-06T09:39:17;0.43;;;0.30;;
62463;SDS011;48512;48.552;9.380;2023-08-06T09:41:45;1.35;;;0.43;;
62463;SDS011;48512;48.552;9.380;2023-08-06T09:44:17;0.95;;;0.20;;
62463;SDS011;48512;48.552;9.380;2023-08-06T09:46:51;0.40;;;0.20;;
62463;SDS011;48512;48.552;9.380;2023-08-06T09:49:19;1.85;;;0.30;;
62463;SDS011;48512;48.552;9.380;2023-08-06T09:51:46;1.40;;;0.20;;
62463;SDS011;48512;48.552;9.380;2023-08-06T09:54:16;0.47;;;0.30;;
62463;SDS011;48512;48.552;9.380;2023-08-06T09:56:44;0.30;;;0.30;;
62463;SDS011;48512;48.552;9.380;2023-08-06T09:59:10;0.45;;;0.30;;
62463;SDS011;48512;48.552;9.380;2023-08-06T10:01:39;0.30;;;0.28;;
62463;SDS011;48512;48.552;9.380;2023-08-06T10:04:05;0.30;;;0.25;;
62463;SDS011;48512;48.552;9.380;2023-08-06T10:06:37;0.75;;;0.30;;
62463;SDS011;48512;48.552;9.380;2023-08-06T10:09:04;0.30;;;0.20;;
62463;SDS011;48512;48.552;9.380;2023-08-06T10:11:30;1.55;;;0.47;;
62463;SDS011;48512;48.552;9.380;2023-08-06T10:13:58;1.92;;;0.50;;
62463;SDS011;48512;48.552;9.380;2023-08-06T10:16:29;0.98;;;0.35;;
62463;SDS011;48512;48.552;9.380;2023-08-06T10:18:56;0.20;;;0.20;;
62463;SDS011;48512;48.552;9.380;2023-08-06T10:21:23;0.15;;;0.15;;
62463;SDS011;48512;48.552;9.380;2023-08-06T10:23:53;0.50;;;0.20;;
62463;SDS011;48512;48.552;9.380;2023-08-06T10:26:20;0.20;;;0.20;;
62463;SDS011;48512;48.552;9.380;2023-08-06T10:28:46;0.40;;;0.32;;
62463;SDS011;48512;48.552;9.380;2023-08-06T10:31:12;2.97;;;1.80;;
62463;SDS011;48512;48.552;9.380;2023-08-06T10:33:42;1.00;;;0.30;;
62463;SDS011;48512;48.552;9.380;2023-08-06T10:36:12;0.93;;;0.30;;
62463;SDS011;48512;48.552;9.380;2023-08-06T10:38:49;1.20;;;0.30;;
62463;SDS011;48512;48.552;9.380;2023-08-06T10:41:17;0.20;;;0.20;;
62463;SDS011;48512;48.552;9.380;2023-08-06T10:43:48;1.05;;;0.30;;
62463;SDS011;48512;48.552;9.380;2023-08-06T10:46:26;1.63;;;0.60;;
62463;SDS011;48512;48.552;9.380;2023-08-06T10:48:53;1.17;;;0.40;;
62463;SDS011;48512;48.552;9.380;2023-08-06T10:51:20;1.65;;;0.30;;
62463;SDS011;48512;48.552;9.380;2023-08-06T10:53:46;0.20;;;0.20;;
62463;SDS011;48512;48.552;9.380;2023-08-06T10:56:14;1.77;;;0.40;;
62463;SDS011;48512;48.552;9.380;2023-08-06T10:58:42;0.30;;;0.20;;
62463;SDS011;48512;48.552;9.380;2023-08-06T11:01:09;8.27;;;3.67;;
62463;SDS011;48512;48.552;9.380;2023-08-06T11:03:36;3.10;;;0.88;;
62463;SDS011;48512;48.552;9.380;2023-08-06T11:06:03;2.50;;;1.15;;
62463;SDS011;48512;48.552;9.380;2023-08-06T11:08:34;5.78;;;2.75;;
62463;SDS011;48512;48.552;9.380;2023-08-06T11:11:08;0.35;;;0.20;;
62463;SDS011;48512;48.552;9.380;2023-08-06T11:13:34;0.40;;;0.28;;
62463;SDS011;48512;48.552;9.380;2023-08-06T11:16:00;0.30;;;0.20;;
62463;SDS011;48512;48.552;9.380;2023-08-06T11:18:27;0.20;;;0.20;;
62463;SDS011;48512;48.552;9.380;2023-08-06T11:20:54;0.95;;;0.40;;
62463;SDS011;48512;48.552;9.380;2023-08-06T11:23:20;1.20;;;0.88;;
62463;SDS011;48512;48.552;9.380;2023-08-06T11:25:46;2.88;;;0.93;;
62463;SDS011;48512;48.552;9.380;2023-08-06T11:28:12;1.45;;;0.60;;
62463;SDS011;48512;48.552;9.380;2023-08-06T11:30:38;1.10;;;0.38;;
62463;SDS011;48512;48.552;9.380;2023-08-06T11:33:06;0.52;;;0.40;;
62463;SDS011;48512;48.552;9.380;2023-08-06T11:35:36;3.97;;;2.58;;
62463;SDS011;48512;48.552;9.380;2023-08-06T11:38:03;1.48;;;0.70;;
62463;SDS011;48512;48.552;9.380;2023-08-06T11:40:29;0.57;;;0.40;;
62463;SDS011;48512;48.552;9.380;2023-08-06T11:42:57;0.30;;;0.30;;
62463;SDS011;48512;48.552;9.380;2023-08-06T11:45:24;2.88;;;0.57;;
62463;SDS011;48512;48.552;9.380;2023-08-06T11:47:51;0.80;;;0.40;;
62463;SDS011;48512;48.552;9.380;2023-08-06T11:50:26;0.40;;;0.40;;
62463;SDS011;48512;48.552;9.380;2023-08-06T11:53:01;1.08;;;0.40;;
62463;SDS011;48512;48.552;9.380;2023-08-06T11:55:29;0.52;;;0.40;;
62463;SDS011;48512;48.552;9.380;2023-08-06T11:57:55;0.20;;;0.20;;
62463;SDS011;48512;48.552;9.380;2023-08-06T12:00:25;0.30;;;0.30;;
62463;SDS011;48512;48.552;9.380;2023-08-06T12:05:19;1.05;;;0.30;;
62463;SDS011;48512;48.552;9.380;2023-08-06T12:07:55;3.78;;;0.38;;
62463;SDS011;48512;48.552;9.380;2023-08-06T12:10:23;0.38;;;0.38;;
62463;SDS011;48512;48.552;9.380;2023-08-06T12:12:51;0.50;;;0.50;;
62463;SDS011;48512;48.552;9.380;2023-08-06T12:15:18;1.00;;;0.35;;
62463;SDS011;48512;48.552;9.380;2023-08-06T12:17:45;0.40;;;0.40;;
62463;SDS011;48512;48.552;9.380;2023-08-06T12:20:11;0.70;;;0.47;;
62463;SDS011;48512;48.552;9.380;2023-08-06T12:22:38;0.88;;;0.50;;
62463;SDS011;48512;48.552;9.380;2023-08-06T12:25:06;1.00;;;0.40;;
62463;SDS011;48512;48.552;9.380;2023-08-06T12:27:34;1.65;;;0.90;;
62463;SDS011;48512;48.552;9.380;2023-08-06T12:30:01;2.97;;;0.75;;
62463;SDS011;48512;48.552;9.380;2023-08-06T12:32:28;1.65;;;0.73;;
62463;SDS011;48512;48.552;9.380;2023-08-06T12:34:54;3.20;;;0.55;;
62463;SDS011;48512;48.552;9.380;2023-08-06T12:37:20;7.65;;;3.78;;
62463;SDS011;48512;48.552;9.380;2023-08-06T12:39:47;3.25;;;1.80;;
62463;SDS011;48512;48.552;9.380;2023-08-06T12:42:13;1.58;;;0.98;;
62463;SDS011;48512;48.552;9.380;2023-08-06T12:44:39;2.80;;;1.60;;
62463;SDS011;48512;48.552;9.380;2023-08-06T12:47:06;1.58;;;1.38;;
62463;SDS011;48512;48.552;9.380;2023-08-06T12:49:33;3.70;;;1.58;;
62463;SDS011;48512;48.552;9.380;2023-08-06T12:51:59;4.40;;;2.42;;
62463;SDS011;48512;48.552;9.380;2023-08-06T12:54:26;1.90;;;1.10;;
62463;SDS011;48512;48.552;9.380;2023-08-06T12:56:53;3.67;;;1.30;;
62463;SDS011;48512;48.552;9.380;2023-08-06T12:59:19;8.90;;;3.90;;
62463;SDS011;48512;48.552;9.380;2023-08-06T13:01:45;1.73;;;1.35;;
62463;SDS011;48512;48.552;9.380;2023-08-06T13:04:12;3.17;;;1.52;;
62463;SDS011;48512;48.552;9.380;2023-08-06T13:06:38;3.03;;;1.30;;
62463;SDS011;48512;48.552;9.380;2023-08-06T13:09:06;2.70;;;1.30;;
62463;SDS011;48512;48.552;9.380;2023-08-06T13:11:37;1.63;;;1.20;;
62463;SDS011;48512;48.552;9.380;2023-08-06T13:14:10;2.83;;;1.60;;
62463;SDS011;48512;48.552;9.380;2023-08-06T13:16:38;1.85;;;1.60;;
62463;SDS011;48512;48.552;9.380;2023-08-06T13:19:05;3.70;;;2.55;;
62463;SDS011;48512;48.552;9.380;2023-08-06T13:24:24;4.05;;;2.53;;
62463;SDS011;48512;48.552;9.380;2023-08-06T13:26:50;8.52;;;5.30;;
62463;SDS011;48512;48.552;9.380;2023-08-06T13:29:16;14.13;;;6.65;;
62463;SDS011;48512;48.552;9.380;2023-08-06T13:31:42;3.00;;;1.42;;
62463;SDS011;48512;48.552;9.380;2023-08-06T13:34:08;1.75;;;1.13;;
62463;SDS011;48512;48.552;9.380;2023-08-06T13:36:34;1.38;;;1.00;;
62463;SDS011;48512;48.552;9.380;2023-08-06T13:39:00;1.92;;;1.10;;
62463;SDS011;48512;48.552;9.380;2023-08-06T13:41:27;3.50;;;1.20;;
62463;SDS011;48512;48.552;9.380;2023-08-06T13:43:53;3.05;;;0.90;;
62463;SDS011;48512;48.552;9.380;2023-08-06T13:46:19;1.65;;;0.90;;
62463;SDS011;48512;48.552;9.380;2023-08-06T13:48:46;2.47;;;1.17;;
62463;SDS011;48512;48.552;9.380;2023-08-06T13:51:14;1.33;;;0.90;;
62463;SDS011;48512;48.552;9.380;2023-08-06T13:53:40;1.10;;;0.95;;
62463;SDS011;48512;48.552;9.380;2023-08-06T13:56:07;1.10;;;0.85;;
62463;SDS011;48512;48.552;9.380;2023-08-06T13:58:35;0.70;;;0.68;;
62463;SDS011;48512;48.552;9.380;2023-08-06T14:01:01;0.82;;;0.70;;
62463;SDS011;48512;48.552;9.380;2023-08-06T14:03:27;3.95;;;1.30;;
62463;SDS011;48512;48.552;9.380;2023-08-06T14:05:53;3.70;;;0.75;;
62463;SDS011;48512;48.552;9.380;2023-08-06T14:08:22;1.00;;;0.82;;
62463;SDS011;48512;48.552;9.380;2023-08-06T14:10:49;2.35;;;0.80;;
62463;SDS011;48512;48.552;9.380;2023-08-06T14:13:16;1.17;;;0.80;;
62463;SDS011;48512;48.552;9.380;2023-08-06T14:15:43;3.47;;;1.10;;
62463;SDS011;48512;48.552;9.380;2023-08-06T14:18:13;0.80;;;0.70;;
62463;SDS011;48512;48.552;9.380;2023-08-06T14:20:40;3.35;;;0.60;;
62463;SDS011;48512;48.552;9.380;2023-08-06T14:23:09;1.23;;;0.70;;
62463;SDS011;48512;48.552;9.380;2023-08-06T14:25:36;1.42;;;0.63;;
62463;SDS011;48512;48.552;9.380;2023-08-06T14:28:03;0.60;;;0.50;;
62463;SDS011;48512;48.552;9.380;2023-08-06T14:30:29;1.45;;;0.70;;
62463;SDS011;48512;48.552;9.380;2023-08-06T14:32:56;0.70;;;0.65;;
62463;SDS011;48512;48.552;9.380;2023-08-06T14:35:22;0.85;;;0.65;;
62463;SDS011;48512;48.552;9.380;2023-08-06T14:37:48;1.98;;;0.80;;
62463;SDS011;48512;48.552;9.380;2023-08-06T14:40:14;0.65;;;0.60;;
62463;SDS011;48512;48.552;9.380;2023-08-06T14:42:40;2.95;;;1.35;;
62463;SDS011;48512;48.552;9.380;2023-08-06T14:45:06;1.13;;;0.50;;
62463;SDS011;48512;48.552;9.380;2023-08-06T14:47:32;3.05;;;1.10;;
62463;SDS011;48512;48.552;9.380;2023-08-06T14:49:58;2.75;;;0.88;;
62463;SDS011;48512;48.552;9.380;2023-08-06T14:52:24;2.50;;;1.40;;
62463;SDS011;48512;48.552;9.380;2023-08-06T14:54:51;1.77;;;1.05;;
62463;SDS011;48512;48.552;9.380;2023-08-06T14:57:18;5.93;;;2.33;;
62463;SDS011;48512;48.552;9.380;2023-08-06T14:59:44;5.10;;;1.55;;
62463;SDS011;48512;48.552;9.380;2023-08-06T15:02:10;2.17;;;1.23;;
62463;SDS011;48512;48.552;9.380;2023-08-06T15:04:36;1.52;;;0.80;;
62463;SDS011;48512;48.552;9.380;2023-08-06T15:07:02;0.90;;;0.55;;